Terminal Aerodrome Forecast
Issued by NWS

Home | Current Version | Previous Version | Text Only | Print | Product List | Glossary On
Versions: 1 2 3 4 5 6 7 8 9 10 11 12
000
FTUS46 KHNX 270533
TAFFAT
TAF
KFAT 270533Z 2706/2806 13003KT P6SM SCT080 BKN150
     FM270900 04005KT P6SM BKN050 OVC070
      TEMPO 2710/2713 P6SM -RA OVC050
     FM271800 31009KT P6SM BKN050=

USA.gov is the U.S. government's official web portal to all federal, state and local government web resources and services.